createdAt,value
2022-08-29T00:00:22.401Z,99055.82
2022-08-29T00:05:42.522Z,99052.38
2022-08-29T00:10:50.043Z,99055.63
2022-08-29T00:15:57.270Z,99058.77
2022-08-29T00:21:05.181Z,99061.02
2022-08-29T00:26:12.069Z,99063.34
2022-08-29T00:31:19.289Z,99065.10
2022-08-29T00:36:27.404Z,99059.60
2022-08-29T00:41:37.778Z,99055.90
2022-08-29T00:46:52.450Z,99056.85
2022-08-29T00:52:01.282Z,99055.04
2022-08-29T00:57:09.642Z,99054.63
2022-08-29T01:02:17.115Z,99054.05
2022-08-29T01:07:24.341Z,99056.44
2022-08-29T01:12:34.408Z,99058.73
2022-08-29T01:17:50.215Z,99063.38
2022-08-29T01:23:08.841Z,99062.72
2022-08-29T01:28:20.072Z,99067.73
2022-08-29T01:33:27.803Z,99057.17
2022-08-29T01:38:34.797Z,99059.19
2022-08-29T01:43:47.381Z,99060.70
2022-08-29T01:48:54.773Z,99061.98
2022-08-29T01:54:01.698Z,99063.46
2022-08-29T01:59:11.047Z,99074.27
2022-08-29T02:04:18.427Z,99077.05
2022-08-29T02:09:26.526Z,99074.51
2022-08-29T02:14:34.882Z,99073.77
2022-08-29T02:19:42.870Z,99075.09
2022-08-29T02:24:49.872Z,99075.83
2022-08-29T02:29:56.872Z,99078.04
2022-08-29T02:35:05.064Z,99078.70
2022-08-29T02:40:13.467Z,99078.17
2022-08-29T02:45:22.199Z,99078.83
2022-08-29T02:50:30.020Z,99079.92
2022-08-29T02:55:37.267Z,99082.52
2022-08-29T03:00:44.915Z,99083.63
2022-08-29T03:05:52.301Z,99088.11
2022-08-29T03:10:59.515Z,99087.48
2022-08-29T03:16:07.245Z,99095.21
2022-08-29T03:21:20.814Z,99094.19
2022-08-29T03:26:28.276Z,99097.10
2022-08-29T03:31:35.943Z,99099.68
2022-08-29T03:36:43.246Z,99105.76
2022-08-29T03:41:50.215Z,99107.44
2022-08-29T03:46:57.173Z,99111.89
2022-08-29T03:52:05.309Z,99121.02
2022-08-29T03:57:12.378Z,99122.54
2022-08-29T04:02:19.630Z,99127.33
2022-08-29T04:07:26.942Z,99131.21
2022-08-29T04:12:33.989Z,99135.48
2022-08-29T04:17:52.864Z,99140.73
2022-08-29T04:23:01.613Z,99153.08
2022-08-29T04:28:10.257Z,99158.83
2022-08-29T04:33:22.877Z,99165.05
2022-08-29T04:38:30.281Z,99172.88
2022-08-29T04:43:37.195Z,99173.17
2022-08-29T04:48:46.126Z,99175.55
2022-08-29T04:53:54.453Z,99178.09
2022-08-29T04:59:01.776Z,99181.20
2022-08-29T05:04:12.504Z,99194.00
2022-08-29T05:09:22.357Z,99200.98
2022-08-29T05:14:29.359Z,99207.27
2022-08-29T05:19:36.718Z,99209.74
2022-08-29T05:24:51.032Z,99214.23
2022-08-29T05:29:59.896Z,99217.70
2022-08-29T05:35:07.531Z,99223.67
2022-08-29T05:40:15.007Z,99225.51
2022-08-29T05:45:23.685Z,99231.22
2022-08-29T05:50:30.689Z,99230.89
2022-08-29T05:55:42.138Z,99234.78
2022-08-29T06:00:50.042Z,99237.08
2022-08-29T06:05:57.012Z,99239.33
2022-08-29T06:11:04.535Z,99243.48
2022-08-29T06:16:14.529Z,99248.02
2022-08-29T06:21:21.849Z,99255.84
2022-08-29T06:26:29.013Z,99259.92
2022-08-29T06:31:36.814Z,99263.89
2022-08-29T06:36:44.157Z,99268.95
2022-08-29T06:41:51.372Z,99274.98
2022-08-29T06:46:58.817Z,99277.02
2022-08-29T06:52:06.605Z,99283.96
2022-08-29T06:57:13.577Z,99291.48
2022-08-29T07:02:21.984Z,99296.29
2022-08-29T07:07:29.618Z,99302.56
2022-08-29T07:12:44.710Z,99304.52
2022-08-29T07:17:56.591Z,99308.91
2022-08-29T07:23:06.803Z,99313.05
2022-08-29T07:28:16.578Z,99316.63
2022-08-29T07:33:24.026Z,99321.67
2022-08-29T07:38:33.728Z,99327.95
2022-08-29T07:43:45.843Z,99333.43
2022-08-29T07:48:56.128Z,99327.71
2022-08-29T07:54:04.569Z,99328.84
2022-08-29T07:59:12.807Z,99332.65
2022-08-29T08:04:19.979Z,99340.14
2022-08-29T08:09:27.751Z,99353.36
2022-08-29T08:14:35.920Z,99357.40
2022-08-29T08:19:43.289Z,99355.29
2022-08-29T08:24:50.431Z,99356.69
2022-08-29T08:29:59.957Z,99368.81
2022-08-29T08:35:09.270Z,99369.54
2022-08-29T08:40:23.466Z,99368.55
2022-08-29T08:45:37.728Z,99367.45
2022-08-29T08:50:53.774Z,99370.14
2022-08-29T08:56:05.994Z,99373.90
2022-08-29T09:01:23.180Z,99375.37
2022-08-29T09:06:46.604Z,99374.00
2022-08-29T09:12:03.331Z,99376.46
2022-08-29T09:17:17.097Z,99376.25
2022-08-29T09:22:33.119Z,99377.23
2022-08-29T09:27:41.531Z,99378.09
2022-08-29T09:32:59.050Z,99378.38
2022-08-29T09:38:09.561Z,99377.47
2022-08-29T09:43:27.280Z,99376.55
2022-08-29T09:48:36.848Z,99374.30
2022-08-29T09:53:44.877Z,99376.23
2022-08-29T09:59:01.870Z,99372.73
2022-08-29T10:04:10.415Z,99362.80
2022-08-29T10:09:30.549Z,99365.23
2022-08-29T10:14:49.948Z,99365.56
2022-08-29T10:19:59.052Z,99365.23
2022-08-29T10:25:14.469Z,99357.75
2022-08-29T10:30:24.660Z,99355.92
2022-08-29T10:35:36.869Z,99364.95
2022-08-29T10:40:48.747Z,99357.40
2022-08-29T10:46:20.321Z,99358.41
2022-08-29T10:51:39.197Z,99356.97
2022-08-29T10:56:49.770Z,99354.42
2022-08-29T11:02:02.916Z,99354.94
2022-08-29T11:07:16.671Z,99359.81
2022-08-29T11:12:33.756Z,99362.29
2022-08-29T11:17:46.575Z,99356.04
2022-08-29T11:22:59.215Z,99348.56
2022-08-29T11:28:19.159Z,99353.17
2022-08-29T11:33:35.733Z,99348.15
2022-08-29T11:39:02.940Z,99346.72
2022-08-29T11:44:20.649Z,99341.48
2022-08-29T11:49:47.950Z,99337.58
2022-08-29T11:55:26.572Z,99332.25
2022-08-29T12:00:52.620Z,99333.84
2022-08-29T12:06:05.703Z,99337.83
2022-08-29T12:11:13.421Z,99333.36
2022-08-29T12:16:25.822Z,99338.08
2022-08-29T12:21:47.368Z,99340.89
2022-08-29T12:26:55.073Z,99339.33
2022-08-29T12:32:39.998Z,99346.81
2022-08-29T12:38:03.415Z,99351.41
2022-08-29T12:43:29.540Z,99344.30
2022-08-29T12:48:43.578Z,99340.11
2022-08-29T12:53:56.676Z,99333.94
2022-08-29T12:59:06.558Z,99333.05
2022-08-29T13:04:19.105Z,99330.14
2022-08-29T13:09:44.619Z,99331.45
2022-08-29T13:14:54.802Z,99326.78
2022-08-29T13:20:36.510Z,99327.15
2022-08-29T13:25:50.766Z,99325.71
2022-08-29T13:31:23.066Z,99322.77
2022-08-29T13:36:39.405Z,99316.08
2022-08-29T13:41:49.066Z,99317.73
2022-08-29T13:46:59.529Z,99316.26
2022-08-29T13:52:07.561Z,99315.05
2022-08-29T13:57:19.621Z,99312.43
2022-08-29T14:02:28.090Z,99315.59
2022-08-29T14:07:37.261Z,99316.40
2022-08-29T14:12:45.473Z,99314.31
2022-08-29T14:17:52.544Z,99315.02
2022-08-29T14:22:59.750Z,99312.56
2022-08-29T14:28:08.231Z,99314.33
2022-08-29T14:33:15.574Z,99317.12
2022-08-29T14:38:27.090Z,99321.56
2022-08-29T14:43:37.808Z,99317.21
2022-08-29T14:48:46.703Z,99320.85
2022-08-29T14:53:54.881Z,99313.64
2022-08-29T14:59:02.391Z,99310.11
2022-08-29T15:04:09.651Z,99310.00
2022-08-29T15:09:18.600Z,99310.14
2022-08-29T15:14:25.673Z,99306.27
2022-08-29T15:25:00.786Z,99302.07
2022-08-29T15:30:09.651Z,99303.35
2022-08-29T15:35:16.785Z,99300.42
2022-08-29T15:40:27.360Z,99296.04
2022-08-29T15:45:34.421Z,99292.83
2022-08-29T15:50:43.571Z,99291.16
2022-08-29T15:55:52.718Z,99290.98
2022-08-29T16:01:00.109Z,99292.90
2022-08-29T16:06:07.485Z,99287.75
2022-08-29T16:11:14.432Z,99287.21
2022-08-29T16:16:22.182Z,99283.70
2022-08-29T16:21:29.249Z,99279.95
2022-08-29T16:26:37.129Z,99282.34
2022-08-29T16:31:44.068Z,99279.83
2022-08-29T16:36:51.458Z,99276.48
2022-08-29T16:41:59.298Z,99271.95
2022-08-29T16:47:06.926Z,99279.56
2022-08-29T16:52:15.296Z,99282.17
2022-08-29T16:57:22.341Z,99279.83
2022-08-29T17:02:29.712Z,99286.17
2022-08-29T17:07:36.032Z,99288.54
2022-08-29T17:12:41.908Z,99292.67
2022-08-29T17:17:48.915Z,99302.37
2022-08-29T17:22:55.885Z,99307.41
2022-08-29T17:28:19.173Z,99311.23
2022-08-29T17:33:28.083Z,99311.34
2022-08-29T17:38:35.506Z,99315.29
2022-08-29T17:43:45.146Z,99327.41
2022-08-29T17:48:52.236Z,99333.11
2022-08-29T17:53:59.227Z,99337.91
2022-08-29T17:59:06.916Z,99344.08
2022-08-29T18:04:15.660Z,99347.55
2022-08-29T18:09:24.262Z,99354.61
2022-08-29T18:14:31.308Z,99360.81
2022-08-29T18:19:38.917Z,99361.63
2022-08-29T18:24:48.228Z,99365.67
2022-08-29T18:29:55.576Z,99375.92
2022-08-29T18:35:05.760Z,99381.00
2022-08-29T18:40:13.923Z,99382.05
2022-08-29T18:45:21.017Z,99379.55
2022-08-29T18:50:39.382Z,99385.77
2022-08-29T18:55:51.248Z,99387.20
2022-08-29T19:01:10.630Z,99399.94
2022-08-29T19:06:18.043Z,99408.41
2022-08-29T19:11:25.381Z,99419.23
2022-08-29T19:16:32.901Z,99421.46
2022-08-29T19:21:42.484Z,99426.25
2022-08-29T19:26:49.493Z,99436.63
2022-08-29T19:31:58.586Z,99443.30
2022-08-29T19:37:06.783Z,99451.96
2022-08-29T20:03:34.539Z,99461.05
2022-08-29T20:08:43.939Z,99467.90
2022-08-29T20:13:52.198Z,99466.94
2022-08-29T20:18:59.489Z,99473.20
2022-08-29T20:24:08.166Z,99472.17
2022-08-29T20:29:17.623Z,99479.19
2022-08-29T20:34:28.574Z,99484.59
2022-08-29T20:39:36.507Z,99477.96
2022-08-29T20:44:45.610Z,99476.93
2022-08-29T20:49:56.048Z,99482.73
2022-08-29T20:55:03.364Z,99476.19
2022-08-29T21:00:13.412Z,99471.71
2022-08-29T21:05:41.310Z,99479.50
2022-08-29T21:10:50.773Z,99480.21
2022-08-29T21:15:58.256Z,99475.15
2022-08-29T21:21:06.897Z,99472.48
2022-08-29T21:26:23.118Z,99474.17
2022-08-29T21:31:32.305Z,99477.83
2022-08-29T21:36:45.844Z,99476.12
2022-08-29T21:41:54.526Z,99478.63
2022-08-29T21:47:05.712Z,99485.29
2022-08-29T21:52:14.524Z,99489.27
2022-08-29T21:57:39.075Z,99485.98
2022-08-29T22:02:49.146Z,99491.30
2022-08-29T22:07:58.940Z,99487.77
2022-08-29T22:13:08.411Z,99484.63
2022-08-29T22:18:16.533Z,99487.99
2022-08-29T22:23:25.582Z,99490.71
2022-08-29T22:28:34.451Z,99491.10
2022-08-29T22:33:44.777Z,99494.52
2022-08-29T22:38:56.382Z,99497.73
2022-08-29T22:49:34.593Z,99488.88
2022-08-29T22:54:43.823Z,99490.02
2022-08-29T22:59:51.899Z,99491.88
2022-08-29T23:04:59.986Z,99489.34
2022-08-29T23:10:12.867Z,99489.53
2022-08-29T23:15:23.740Z,99491.88
2022-08-29T23:20:34.710Z,99493.30
2022-08-29T23:25:43.267Z,99480.70
2022-08-29T23:30:52.017Z,99486.70
2022-08-29T23:36:00.751Z,99493.25
2022-08-29T23:41:10.400Z,99493.91
2022-08-29T23:46:19.988Z,99490.24
2022-08-29T23:51:28.519Z,99493.50
2022-08-29T23:56:38.510Z,99497.89
